createdAt,value
2018-06-16T00:01:29.070Z,7.90
2018-06-16T00:03:57.604Z,9.27
2018-06-16T00:06:25.872Z,9.27
2018-06-16T00:08:54.161Z,9.00
2018-06-16T00:11:22.423Z,8.90
2018-06-16T00:13:51.039Z,9.63
2018-06-16T00:16:19.332Z,9.33
2018-06-16T00:18:47.595Z,10.10
2018-06-16T00:21:15.857Z,9.60
2018-06-16T00:23:44.622Z,9.57
2018-06-16T00:26:13.098Z,10.00
2018-06-16T00:28:41.382Z,10.03
2018-06-16T00:31:09.630Z,9.70
2018-06-16T00:33:37.900Z,10.10
2018-06-16T00:36:06.567Z,9.50
2018-06-16T00:38:35.035Z,9.57
2018-06-16T00:41:03.356Z,9.93
2018-06-16T00:43:31.674Z,10.07
2018-06-16T00:45:59.950Z,9.30
2018-06-16T00:48:28.485Z,10.50
2018-06-16T00:50:56.842Z,10.47
2018-06-16T00:53:25.190Z,11.17
2018-06-16T00:55:53.464Z,11.30
2018-06-16T00:58:22.724Z,9.67
2018-06-16T01:00:51.149Z,10.17
2018-06-16T01:03:19.403Z,10.83
2018-06-16T01:05:47.798Z,10.13
2018-06-16T01:08:16.053Z,10.40
2018-06-16T01:10:46.091Z,10.50
2018-06-16T01:13:14.467Z,10.03
2018-06-16T01:15:42.746Z,10.07
2018-06-16T01:20:50.150Z,11.20
2018-06-16T01:23:18.403Z,10.73
2018-06-16T01:25:46.668Z,10.63
2018-06-16T01:28:14.961Z,11.57
2018-06-16T01:30:43.675Z,11.47
2018-06-16T01:33:12.277Z,10.37
2018-06-16T01:35:40.531Z,10.93
2018-06-16T01:38:08.806Z,10.63
2018-06-16T01:40:37.074Z,10.93
2018-06-16T01:43:05.351Z,11.20
2018-06-16T01:45:33.642Z,10.70
2018-06-16T01:48:01.907Z,11.97
2018-06-16T01:50:30.207Z,11.53
2018-06-16T01:52:58.514Z,11.60
2018-06-16T01:55:26.829Z,11.87
2018-06-16T01:57:55.121Z,11.57
2018-06-16T02:00:23.415Z,11.00
2018-06-16T02:02:51.772Z,10.93
2018-06-16T02:05:20.433Z,12.20
2018-06-16T02:07:48.688Z,11.73
2018-06-16T02:10:16.955Z,12.53
2018-06-16T02:12:45.238Z,12.10
2018-06-16T02:15:14.376Z,11.73
2018-06-16T02:17:42.643Z,11.20
2018-06-16T02:20:10.931Z,11.30
2018-06-16T02:22:39.186Z,12.20
2018-06-16T02:25:07.646Z,12.27
2018-06-16T02:27:35.754Z,12.43
2018-06-16T02:30:04.214Z,13.43
2018-06-16T02:32:32.471Z,13.00
2018-06-16T02:35:00.724Z,12.23
2018-06-16T02:37:29.154Z,12.23
2018-06-16T02:39:58.475Z,13.30
2018-06-16T02:42:26.734Z,12.77
2018-06-16T02:44:55.007Z,12.40
2018-06-16T02:47:23.267Z,13.53
2018-06-16T02:49:51.656Z,13.40
2018-06-16T02:52:20.096Z,12.17
2018-06-16T02:54:48.335Z,13.53
2018-06-16T02:57:16.599Z,14.43
2018-06-16T02:59:44.961Z,14.70
2018-06-16T03:02:13.380Z,14.83
2018-06-16T03:04:41.785Z,14.53
2018-06-16T03:07:10.113Z,14.70
2018-06-16T03:09:38.378Z,13.97
2018-06-16T03:12:06.814Z,12.83
2018-06-16T03:14:35.170Z,13.33
2018-06-16T03:17:03.501Z,13.07
2018-06-16T03:19:31.787Z,13.73
2018-06-16T03:22:00.031Z,13.97
2018-06-16T03:24:28.314Z,14.80
2018-06-16T03:26:56.627Z,13.57
2018-06-16T03:29:24.853Z,14.60
2018-06-16T03:31:53.198Z,15.10
2018-06-16T03:34:21.689Z,14.93
2018-06-16T03:36:50.157Z,15.10
2018-06-16T03:39:18.505Z,15.93
2018-06-16T03:41:46.810Z,16.43
2018-06-16T03:44:15.155Z,16.00
2018-06-16T03:46:44.115Z,15.87
2018-06-16T03:49:12.588Z,15.33
2018-06-16T03:51:40.825Z,15.37
2018-06-16T03:54:09.166Z,14.67
2018-06-16T03:56:37.422Z,15.43
2018-06-16T03:59:06.314Z,14.73
2018-06-16T04:01:34.694Z,13.67
2018-06-16T04:04:02.915Z,14.47
2018-06-16T04:06:31.242Z,13.83
2018-06-16T04:08:59.563Z,14.23
2018-06-16T04:11:27.867Z,13.43
2018-06-16T04:13:56.170Z,13.77
2018-06-16T04:16:24.375Z,12.90
2018-06-16T04:18:52.723Z,12.00
2018-06-16T04:21:21.064Z,14.13
2018-06-16T04:23:49.989Z,14.03
2018-06-16T04:26:18.214Z,13.37
2018-06-16T04:28:46.473Z,13.13
2018-06-16T04:31:14.842Z,15.13
2018-06-16T04:33:43.239Z,15.20
2018-06-16T04:36:11.528Z,15.13
2018-06-16T04:38:39.809Z,15.50
2018-06-16T04:41:08.091Z,15.80
2018-06-16T04:43:36.508Z,14.43
2018-06-16T04:46:04.828Z,14.27
2018-06-16T04:48:33.070Z,15.60
2018-06-16T04:51:01.286Z,15.40
2018-06-16T04:53:29.814Z,16.23
2018-06-16T04:55:58.095Z,15.17
2018-06-16T04:58:26.344Z,16.23
2018-06-16T05:00:54.340Z,15.60
2018-06-16T05:03:22.643Z,15.73
2018-06-16T05:05:51.870Z,15.60
2018-06-16T05:08:20.311Z,15.87
2018-06-16T05:10:48.611Z,14.63
2018-06-16T05:13:16.900Z,15.77
2018-06-16T05:15:45.172Z,16.60
2018-06-16T05:18:13.439Z,16.67
2018-06-16T05:20:42.231Z,16.93
2018-06-16T05:23:10.419Z,17.93
2018-06-16T05:25:38.692Z,16.20
2018-06-16T05:28:07.463Z,16.97
2018-06-16T05:30:35.847Z,17.10
2018-06-16T05:33:04.171Z,16.83
2018-06-16T05:35:32.449Z,18.27
2018-06-16T05:38:00.774Z,17.83
2018-06-16T05:40:29.042Z,17.50
2018-06-16T05:42:57.431Z,17.77
2018-06-16T05:45:25.738Z,17.20
2018-06-16T05:47:53.970Z,17.60
2018-06-16T05:50:22.315Z,17.63
2018-06-16T05:52:50.728Z,17.60
2018-06-16T05:55:18.984Z,16.40
2018-06-16T05:57:47.301Z,16.20
2018-06-16T06:00:15.535Z,16.00
2018-06-16T06:02:43.923Z,16.13
2018-06-16T06:05:12.260Z,17.07
2018-06-16T06:07:40.548Z,16.57
2018-06-16T06:10:08.831Z,16.13
2018-06-16T06:12:37.144Z,14.77
2018-06-16T06:15:06.656Z,15.50
2018-06-16T06:17:34.678Z,15.27
2018-06-16T06:20:02.971Z,15.17
2018-06-16T06:22:31.247Z,15.07
2018-06-16T06:24:59.670Z,14.87
2018-06-16T06:27:28.134Z,14.33
2018-06-16T06:29:56.382Z,15.60
2018-06-16T06:32:24.667Z,13.90
2018-06-16T06:34:52.954Z,13.80
2018-06-16T06:37:21.386Z,12.33
2018-06-16T06:39:49.815Z,12.50
2018-06-16T06:42:18.071Z,12.90
2018-06-16T06:44:46.348Z,12.13
2018-06-16T06:47:14.834Z,12.40
2018-06-16T06:49:43.285Z,13.13
2018-06-16T06:52:11.550Z,13.13
2018-06-16T06:54:39.825Z,12.20
2018-06-16T06:57:08.050Z,13.00
2018-06-16T06:59:36.701Z,11.77
2018-06-16T07:02:05.104Z,11.93
2018-06-16T07:04:33.394Z,11.60
2018-06-16T07:07:01.401Z,11.80
2018-06-16T07:09:30.305Z,11.40
2018-06-16T07:11:58.786Z,11.47
2018-06-16T07:14:27.069Z,10.80
2018-06-16T07:16:55.335Z,11.03
2018-06-16T07:19:23.646Z,10.57
2018-06-16T07:21:52.068Z,10.07
2018-06-16T07:24:20.410Z,10.30
2018-06-16T07:26:48.707Z,10.33
2018-06-16T07:29:17.004Z,9.53
2018-06-16T07:31:45.275Z,10.33
2018-06-16T07:34:13.615Z,8.70
2018-06-16T07:36:42.729Z,8.67
2018-06-16T07:39:11.375Z,9.33
2018-06-16T07:41:39.693Z,8.20
2018-06-16T07:44:07.969Z,7.03
2018-06-16T07:46:36.863Z,7.50
2018-06-16T07:49:05.189Z,7.10
2018-06-16T07:51:33.498Z,7.07
2018-06-16T07:54:01.736Z,7.23
2018-06-16T07:56:30.051Z,6.93
2018-06-16T07:58:59.298Z,7.33
2018-06-16T08:01:27.609Z,6.87
2018-06-16T08:03:55.978Z,7.50
2018-06-16T08:06:24.267Z,6.67
2018-06-16T08:08:52.850Z,7.40
2018-06-16T08:11:21.191Z,6.67
2018-06-16T08:13:49.474Z,6.57
2018-06-16T08:16:17.758Z,6.00
2018-06-16T08:18:46.042Z,6.40
2018-06-16T08:21:14.343Z,6.30
2018-06-16T08:23:43.655Z,6.47
2018-06-16T08:26:11.925Z,5.60
2018-06-16T08:28:40.191Z,6.07
2018-06-16T08:31:08.486Z,5.20
2018-06-16T08:33:37.455Z,5.20
2018-06-16T08:36:05.758Z,5.27
2018-06-16T08:38:34.014Z,4.80
2018-06-16T08:41:02.361Z,5.13
2018-06-16T08:43:30.643Z,5.10
2018-06-16T08:45:58.999Z,5.20
2018-06-16T08:48:27.247Z,4.13
2018-06-16T08:50:55.487Z,3.83
2018-06-16T08:53:23.735Z,4.17
2018-06-16T08:55:52.536Z,5.30
2018-06-16T08:58:20.923Z,4.30
2018-06-16T09:00:49.317Z,4.20
2018-06-16T09:03:17.698Z,4.53
2018-06-16T09:05:46.155Z,4.40
2018-06-16T09:08:14.956Z,4.10
2018-06-16T09:10:43.347Z,3.70
2018-06-16T09:13:11.636Z,3.70
2018-06-16T09:15:39.995Z,3.40
2018-06-16T09:18:08.269Z,3.70
2018-06-16T09:21:04.232Z,3.60
2018-06-16T09:23:43.418Z,3.73
2018-06-16T09:26:11.777Z,3.70
2018-06-16T09:28:40.090Z,3.00
2018-06-16T09:31:08.429Z,2.83
2018-06-16T09:33:36.940Z,2.87
2018-06-16T09:36:05.622Z,3.20
2018-06-16T09:38:33.975Z,2.90
2018-06-16T09:41:02.245Z,3.00
2018-06-16T09:43:30.552Z,2.70
2018-06-16T09:45:59.718Z,2.73
2018-06-16T09:48:28.368Z,2.90
2018-06-16T09:50:56.639Z,2.67
2018-06-16T09:53:24.995Z,2.80
2018-06-16T09:55:53.272Z,2.90
2018-06-16T09:58:22.133Z,3.67
2018-06-16T10:00:51.250Z,3.43
2018-06-16T10:03:19.548Z,3.93
2018-06-16T10:05:47.823Z,4.03
2018-06-16T10:08:16.296Z,4.03
2018-06-16T10:10:44.687Z,3.50
2018-06-16T10:13:13.219Z,4.33
2018-06-16T10:15:41.545Z,4.27
2018-06-16T10:18:24.692Z,3.97
2018-06-16T10:20:52.978Z,4.20
2018-06-16T10:23:21.524Z,4.40
2018-06-16T10:25:49.831Z,3.87
2018-06-16T10:28:18.135Z,4.07
2018-06-16T10:30:46.427Z,4.43
2018-06-16T10:33:14.922Z,4.27
2018-06-16T10:35:44.327Z,3.87
2018-06-16T10:38:12.638Z,4.20
2018-06-16T10:40:40.971Z,3.87
2018-06-16T10:43:09.229Z,4.00
2018-06-16T10:45:37.487Z,3.60
2018-06-16T10:48:06.118Z,3.73
2018-06-16T10:50:34.384Z,3.80
2018-06-16T10:53:02.779Z,3.83
2018-06-16T10:55:31.827Z,3.53
2018-06-16T10:58:00.187Z,3.60
2018-06-16T11:00:28.784Z,3.77
2018-06-16T11:02:56.979Z,3.80
2018-06-16T11:05:25.332Z,3.83
2018-06-16T11:07:53.330Z,4.10
2018-06-16T11:10:23.586Z,3.17
2018-06-16T11:12:52.305Z,4.10
2018-06-16T11:15:20.903Z,3.73
2018-06-16T11:17:48.917Z,4.27
2018-06-16T11:20:17.191Z,3.73
2018-06-16T11:22:45.459Z,4.00
2018-06-16T11:25:13.898Z,3.70
2018-06-16T11:27:42.438Z,3.80
2018-06-16T11:30:11.186Z,3.90
2018-06-16T11:32:39.489Z,3.80
2018-06-16T11:35:08.009Z,3.80
2018-06-16T11:37:37.270Z,4.50
2018-06-16T11:40:05.820Z,3.97
2018-06-16T11:42:34.119Z,3.90
2018-06-16T11:45:02.574Z,3.97
2018-06-16T11:47:30.844Z,6.07
2018-06-16T11:49:59.333Z,3.40
2018-06-16T11:52:27.804Z,3.80
2018-06-16T11:54:59.087Z,3.83
2018-06-16T11:57:27.386Z,3.60
2018-06-16T11:59:55.739Z,3.80
2018-06-16T12:02:24.594Z,3.90
2018-06-16T12:04:52.875Z,3.50
2018-06-16T12:07:21.148Z,3.43
2018-06-16T12:09:49.423Z,3.67
2018-06-16T12:12:17.739Z,4.07
2018-06-16T12:14:46.022Z,3.47
2018-06-16T12:17:14.451Z,3.50
2018-06-16T12:19:43.502Z,3.93
2018-06-16T12:22:11.763Z,3.33
2018-06-16T12:24:40.075Z,3.43
2018-06-16T12:27:08.301Z,3.90
2018-06-16T12:29:37.268Z,9.30
2018-06-16T12:32:05.504Z,3.10
2018-06-16T12:34:33.789Z,3.90
2018-06-16T12:37:02.066Z,3.90
2018-06-16T12:39:30.569Z,4.00
2018-06-16T12:41:59.019Z,4.07
2018-06-16T12:44:27.462Z,8.73
2018-06-16T12:46:56.135Z,4.10
2018-06-16T12:49:24.384Z,3.50
2018-06-16T12:51:52.816Z,4.23
2018-06-16T12:54:21.075Z,4.10
2018-06-16T12:56:49.507Z,4.90
2018-06-16T12:59:17.838Z,4.37
2018-06-16T13:01:46.088Z,4.00
2018-06-16T13:04:14.455Z,4.10
2018-06-16T13:06:42.814Z,4.90
2018-06-16T13:09:12.427Z,4.50
2018-06-16T13:11:41.267Z,4.67
2018-06-16T13:14:09.508Z,5.63
2018-06-16T13:16:37.880Z,4.40
2018-06-16T13:19:06.327Z,4.47
2018-06-16T13:21:34.679Z,4.70
2018-06-16T13:24:02.931Z,4.10
2018-06-16T13:26:31.294Z,3.97
2018-06-16T13:28:59.867Z,4.30
2018-06-16T13:31:28.775Z,4.17
2018-06-16T13:33:57.022Z,4.60
2018-06-16T13:36:25.381Z,4.43
2018-06-16T13:38:53.765Z,4.07
2018-06-16T13:41:22.380Z,4.07
2018-06-16T13:43:52.921Z,4.30
2018-06-16T13:46:21.151Z,4.13
2018-06-16T13:48:49.400Z,3.87
2018-06-16T13:51:17.634Z,3.93
2018-06-16T13:53:45.878Z,4.23
2018-06-16T13:56:14.500Z,4.23
2018-06-16T13:58:42.818Z,3.83
2018-06-16T14:01:11.090Z,4.10
2018-06-16T14:03:39.387Z,4.00
2018-06-16T14:06:07.919Z,4.23
2018-06-16T14:08:37.150Z,4.30
2018-06-16T14:11:05.647Z,4.20
2018-06-16T14:13:33.910Z,4.40
2018-06-16T14:16:08.602Z,4.57
2018-06-16T14:18:37.076Z,4.73
2018-06-16T14:21:05.510Z,4.73
2018-06-16T14:23:33.810Z,4.70
2018-06-16T14:26:02.068Z,4.60
2018-06-16T14:28:30.393Z,4.50
2018-06-16T14:30:58.776Z,4.47
2018-06-16T14:33:27.012Z,4.77
2018-06-16T14:35:55.382Z,3.80
2018-06-16T14:38:23.362Z,4.57
2018-06-16T14:40:51.787Z,4.57
2018-06-16T14:43:20.267Z,4.53
2018-06-16T14:45:48.518Z,3.93
2018-06-16T14:48:16.793Z,4.30
2018-06-16T14:50:45.351Z,4.67
2018-06-16T14:53:13.632Z,4.43
2018-06-16T14:55:41.642Z,4.27
2018-06-16T14:58:09.957Z,4.40
2018-06-16T15:00:38.166Z,3.90
2018-06-16T15:03:07.327Z,3.87
2018-06-16T15:05:35.972Z,4.67
2018-06-16T15:08:04.266Z,4.40
2018-06-16T15:10:32.525Z,4.30
2018-06-16T15:13:00.803Z,4.30
2018-06-16T15:15:29.707Z,5.03
2018-06-16T15:17:58.152Z,3.93
2018-06-16T15:20:26.527Z,5.50
2018-06-16T15:22:54.802Z,4.83
2018-06-16T15:25:23.048Z,5.27
2018-06-16T15:27:51.437Z,4.80
2018-06-16T15:30:19.694Z,4.10
2018-06-16T15:32:47.993Z,4.80
2018-06-16T15:35:16.207Z,4.57
2018-06-16T15:37:45.418Z,4.00
2018-06-16T15:40:13.878Z,4.53
2018-06-16T15:42:42.130Z,4.10
2018-06-16T15:45:10.423Z,4.27
2018-06-16T15:47:38.824Z,4.57
2018-06-16T15:50:07.099Z,4.27
2018-06-16T15:52:35.765Z,4.30
2018-06-16T15:55:03.848Z,4.60
2018-06-16T15:57:32.011Z,4.80
2018-06-16T16:00:00.087Z,4.80
2018-06-16T16:02:28.378Z,4.57
2018-06-16T16:04:56.658Z,4.83
2018-06-16T16:07:24.914Z,4.33
2018-06-16T16:09:53.256Z,4.57
2018-06-16T16:12:21.645Z,4.47
2018-06-16T16:14:50.119Z,4.80
2018-06-16T16:17:18.439Z,4.67
2018-06-16T16:19:46.717Z,4.73
2018-06-16T16:22:15.591Z,4.20
2018-06-16T16:24:44.169Z,4.77
2018-06-16T16:27:12.435Z,4.90
2018-06-16T16:32:14.511Z,4.80
2018-06-16T16:34:43.349Z,5.00
2018-06-16T16:37:11.617Z,4.97
2018-06-16T16:39:39.898Z,4.93
2018-06-16T16:42:08.147Z,5.00
2018-06-16T16:44:36.257Z,5.23
2018-06-16T16:47:05.307Z,4.60
2018-06-16T16:49:33.779Z,4.63
2018-06-16T16:52:02.062Z,4.80
2018-06-16T16:54:30.400Z,4.37
2018-06-16T16:56:58.783Z,4.23
2018-06-16T16:59:27.084Z,4.43
2018-06-16T17:01:55.391Z,4.60
2018-06-16T17:04:23.714Z,4.47
2018-06-16T17:06:52.051Z,4.50
2018-06-16T17:09:20.687Z,5.17
2018-06-16T17:11:48.990Z,5.77
2018-06-16T17:14:17.322Z,4.77
2018-06-16T17:16:45.610Z,4.67
2018-06-16T17:19:14.105Z,4.90
2018-06-16T17:21:42.542Z,4.50
2018-06-16T17:24:10.782Z,4.47
2018-06-16T17:26:39.021Z,4.17
2018-06-16T17:29:07.514Z,4.60
2018-06-16T17:31:35.765Z,4.73
2018-06-16T17:34:05.025Z,4.30
2018-06-16T17:36:33.502Z,4.70
2018-06-16T17:39:01.811Z,4.07
2018-06-16T17:41:30.330Z,4.60
2018-06-16T17:43:58.591Z,5.03
2018-06-16T17:46:26.907Z,4.43
2018-06-16T17:48:55.222Z,4.73
2018-06-16T17:51:23.464Z,4.50
2018-06-16T17:53:51.974Z,4.80
2018-06-16T17:56:20.567Z,4.40
2018-06-16T17:58:48.831Z,4.70
2018-06-16T18:01:17.055Z,4.80
2018-06-16T18:03:45.402Z,5.37
2018-06-16T18:06:14.357Z,4.90
2018-06-16T18:08:42.615Z,5.00
2018-06-16T18:11:13.125Z,4.90
2018-06-16T18:13:41.334Z,4.90
2018-06-16T18:16:09.677Z,5.20
2018-06-16T18:18:37.945Z,4.80
2018-06-16T18:21:07.046Z,4.90
2018-06-16T18:23:35.422Z,4.73
2018-06-16T18:26:03.682Z,4.77
2018-06-16T18:28:31.681Z,4.70
2018-06-16T18:31:00.567Z,4.97
2018-06-16T18:33:28.865Z,5.13
2018-06-16T18:35:57.110Z,5.30
2018-06-16T18:38:25.367Z,4.47
2018-06-16T18:40:53.599Z,4.90
2018-06-16T18:43:22.006Z,5.10
2018-06-16T18:45:50.299Z,5.07
2018-06-16T18:48:18.544Z,4.73
2018-06-16T18:50:46.771Z,5.40
2018-06-16T18:53:15.736Z,5.37
2018-06-16T18:55:44.807Z,5.17
2018-06-16T18:58:13.799Z,5.27
2018-06-16T19:00:42.048Z,5.47
2018-06-16T19:03:10.357Z,5.00
2018-06-16T19:05:38.634Z,5.60
2018-06-16T19:08:07.154Z,4.87
2018-06-16T19:10:36.190Z,5.53
2018-06-16T19:13:04.517Z,5.47
2018-06-16T19:15:32.804Z,5.13
2018-06-16T19:18:01.237Z,4.90
2018-06-16T19:20:29.616Z,5.27
2018-06-16T19:22:57.998Z,5.47
2018-06-16T19:25:26.306Z,5.37
2018-06-16T19:27:54.624Z,5.00
2018-06-16T19:30:23.162Z,5.53
2018-06-16T19:32:51.683Z,5.33
2018-06-16T19:35:19.976Z,4.80
2018-06-16T19:37:48.223Z,5.67
2018-06-16T19:40:16.735Z,5.23
2018-06-16T19:42:45.085Z,5.43
2018-06-16T19:45:13.390Z,5.77
2018-06-16T19:47:41.710Z,5.07
2018-06-16T19:50:10.031Z,5.17
2018-06-16T19:52:38.393Z,5.40
2018-06-16T19:55:07.214Z,5.10
2018-06-16T19:57:36.007Z,5.60
2018-06-16T20:00:04.447Z,5.30
2018-06-16T20:02:32.722Z,5.73
2018-06-16T20:05:00.987Z,5.80
2018-06-16T20:07:29.392Z,5.63
2018-06-16T20:09:57.789Z,5.43
2018-06-16T20:12:26.062Z,5.57
2018-06-16T20:14:54.283Z,5.63
2018-06-16T20:17:23.466Z,5.07
2018-06-16T20:19:51.954Z,5.43
2018-06-16T20:22:20.205Z,5.27
2018-06-16T20:24:48.433Z,4.97
2018-06-16T20:27:16.692Z,5.57
2018-06-16T20:29:45.177Z,5.57
2018-06-16T20:32:13.466Z,5.80
2018-06-16T20:34:41.674Z,6.17
2018-06-16T20:37:09.910Z,6.20
2018-06-16T20:39:38.173Z,5.80
2018-06-16T20:42:06.563Z,5.60
2018-06-16T20:44:34.842Z,6.00
2018-06-16T20:47:03.244Z,6.17
2018-06-16T20:49:31.474Z,5.53
2018-06-16T20:51:59.994Z,5.20
2018-06-16T20:54:28.335Z,6.23
2018-06-16T20:56:56.546Z,5.97
2018-06-16T20:59:24.792Z,6.00
2018-06-16T21:01:53.020Z,5.77
2018-06-16T21:04:22.464Z,5.13
2018-06-16T21:06:50.879Z,6.10
2018-06-16T21:09:19.468Z,6.37
2018-06-16T21:11:47.723Z,5.83
2018-06-16T21:14:15.970Z,5.80
2018-06-16T21:16:45.122Z,5.90
2018-06-16T21:19:13.466Z,6.00
2018-06-16T21:21:41.745Z,6.37
2018-06-16T21:24:09.998Z,5.97
2018-06-16T21:26:38.223Z,6.33
2018-06-16T21:29:06.785Z,6.90
2018-06-16T21:31:35.073Z,6.13
2018-06-16T21:34:03.275Z,6.50
2018-06-16T21:36:31.506Z,6.00
2018-06-16T21:38:59.823Z,6.93
2018-06-16T21:41:28.203Z,7.10
2018-06-16T21:43:56.434Z,7.27
2018-06-16T21:46:24.675Z,7.23
2018-06-16T21:48:53.118Z,7.87
2018-06-16T21:51:21.603Z,7.87
2018-06-16T21:53:49.854Z,7.83
2018-06-16T21:56:18.111Z,8.07
2018-06-16T21:58:46.153Z,8.70
2018-06-16T22:01:14.638Z,7.77
2018-06-16T22:03:42.949Z,8.60
2018-06-16T22:06:11.235Z,9.50
2018-06-16T22:08:39.562Z,8.97
2018-06-16T22:11:08.206Z,8.53
2018-06-16T22:13:36.500Z,9.17
2018-06-16T22:16:04.774Z,9.00
2018-06-16T22:18:33.030Z,9.13
2018-06-16T22:21:01.284Z,8.77
2018-06-16T22:23:29.618Z,8.33
2018-06-16T22:25:57.978Z,8.90
2018-06-16T22:28:26.202Z,8.73
2018-06-16T22:30:54.435Z,9.07
2018-06-16T22:33:23.350Z,9.07
2018-06-16T22:35:52.655Z,8.30
2018-06-16T22:38:21.046Z,8.67
2018-06-16T22:40:49.357Z,8.80
2018-06-16T22:43:17.674Z,9.07
2018-06-16T22:45:45.917Z,8.90
2018-06-16T22:48:14.297Z,9.60
2018-06-16T22:50:42.850Z,8.93
2018-06-16T22:53:11.066Z,8.87
2018-06-16T22:55:39.362Z,9.47
2018-06-16T22:58:07.923Z,9.00
2018-06-16T23:00:36.459Z,8.73
2018-06-16T23:03:04.713Z,9.17
2018-06-16T23:05:32.979Z,9.43
2018-06-16T23:08:01.360Z,8.97
2018-06-16T23:10:29.888Z,9.40
2018-06-16T23:12:58.215Z,9.53
2018-06-16T23:15:26.472Z,8.73
2018-06-16T23:17:54.880Z,10.30
2018-06-16T23:20:23.203Z,9.50
2018-06-16T23:22:52.078Z,10.03
2018-06-16T23:25:20.375Z,10.47
2018-06-16T23:27:48.802Z,10.53
2018-06-16T23:30:17.054Z,11.40
2018-06-16T23:32:45.571Z,11.70
2018-06-16T23:35:13.963Z,11.53
2018-06-16T23:37:42.270Z,11.43
2018-06-16T23:40:10.711Z,10.40
2018-06-16T23:42:38.959Z,11.60
2018-06-16T23:45:07.820Z,12.97
2018-06-16T23:47:36.483Z,12.67
2018-06-16T23:50:04.762Z,12.23
2018-06-16T23:52:33.054Z,11.57
2018-06-16T23:55:01.368Z,11.70
2018-06-16T23:57:29.712Z,11.87
2018-06-16T23:59:58.120Z,11.80
